»·PEaware :: N6210Q KPRC-KHND

N6210Q :: KPRC-KHND

FLIGHT INFORMATION

Flight Status: Arrived
Operator: Privately registered:
United States
More flights under this callsign
Pilot: Matthew G. (44625)
Aircraft: CESSNA 172 SKYHAWK
(C172)
More flights by this aircraft type
Origin: KPRC Love
United States
Destination: KHND Henderson
United States
More flights between these airports :: More routes between these airports
Route: DRK V105 BLD
File this flight plan on PilotEdge
Remarks:
Altitude:
(Current/Filed)
10,500ft
Speed:
(Current/Filed)
109kts
Departed: 15-Jul-23 01:42 PM
Arrived: 15-Jul-23 03:10 PM
Distance/Time
Traveled:
155nm/1:28
Distance/Time
To Go:
Arrived

Flight Plot

Page will automatically refresh every two minutes.

Flight plan parsing failed; only flown route is shown


Map Options




Map Legend


Flown Route
Filed Route
Departure Airport
Arrival Airport
Navaid (VOR, NDB)
Fix

Horizontal Profiles

Position Reports

Time Latitude Longitude Heading Altitude Ground
Speed
15-Jul-23 13:30 34.646775 -112.425144 217 5025ft 0kts
15-Jul-23 13:31 34.646805 -112.425178 35 5025ft 0kts
15-Jul-23 13:32 34.646805 -112.425178 35 5025ft 0kts
15-Jul-23 13:33 34.647314 -112.425166 2 5023ft 10kts
15-Jul-23 13:34 34.649861 -112.422644 42 5021ft 15kts
15-Jul-23 13:35 34.654368 -112.417851 41 4999ft 26kts
15-Jul-23 13:36 34.658977 -112.412302 43 4973ft 20kts
15-Jul-23 13:37 34.661517 -112.409830 318 4957ft 0kts
15-Jul-23 13:38 34.661517 -112.409830 318 4957ft 0kts
15-Jul-23 13:39 34.661517 -112.409830 318 4958ft 0kts
15-Jul-23 13:40 34.661500 -112.410246 260 4958ft 1kts
15-Jul-23 13:41 34.655620 -112.418310 220 4998ft 81kts
15-Jul-23 13:42 34.635689 -112.438455 220 5529ft 93kts
15-Jul-23 13:43 34.627221 -112.461068 313 6119ft 84kts
15-Jul-23 13:44 34.650937 -112.468194 342 6630ft 87kts
15-Jul-23 13:45 34.676945 -112.474250 345 7092ft 98kts
15-Jul-23 13:46 34.703128 -112.482251 316 7393ft 96kts
15-Jul-23 13:47 34.719117 -112.509840 304 7690ft 99kts
15-Jul-23 13:48 34.734814 -112.537823 304 8024ft 100kts
15-Jul-23 13:49 34.750600 -112.566035 304 8379ft 101kts
15-Jul-23 13:50 34.766605 -112.594619 305 8736ft 102kts
15-Jul-23 13:51 34.782619 -112.623260 304 9008ft 102kts
15-Jul-23 13:52 34.798677 -112.652008 304 9161ft 102kts
15-Jul-23 13:53 34.814797 -112.680860 304 9317ft 101kts
15-Jul-23 13:54 34.830890 -112.709721 304 9537ft 104kts
15-Jul-23 13:55 34.847050 -112.738704 303 9789ft 102kts
15-Jul-23 13:56 34.863134 -112.767573 303 10068ft 104kts
15-Jul-23 13:57 34.879624 -112.797224 303 10315ft 109kts
15-Jul-23 13:58 34.896943 -112.828331 304 10327ft 116kts
15-Jul-23 13:59 34.915486 -112.861731 304 10319ft 115kts
15-Jul-23 14:00 34.933619 -112.894368 304 10319ft 117kts
15-Jul-23 14:01 34.952391 -112.928185 304 10321ft 121kts
15-Jul-23 14:02 34.971347 -112.962448 305 10324ft 118kts
15-Jul-23 14:03 34.990107 -112.996323 306 10322ft 118kts
15-Jul-23 14:04 35.008443 -113.029534 305 10312ft 118kts
15-Jul-23 14:05 35.026673 -113.062497 305 10315ft 117kts
15-Jul-23 14:06 35.044594 -113.095004 306 10311ft 114kts
15-Jul-23 14:07 35.062243 -113.127017 306 10313ft 113kts
15-Jul-23 14:08 35.079981 -113.159200 305 10311ft 114kts
15-Jul-23 14:09 35.097647 -113.191294 305 10312ft 114kts
15-Jul-23 14:10 35.115363 -113.223521 305 10304ft 112kts
15-Jul-23 14:11 35.133030 -113.255675 305 10310ft 113kts
15-Jul-23 14:12 35.150981 -113.288374 305 10314ft 117kts
15-Jul-23 14:13 35.169170 -113.321541 305 10310ft 117kts
15-Jul-23 14:14 35.187478 -113.354993 305 10307ft 119kts
15-Jul-23 14:15 35.205617 -113.388129 305 10299ft 117kts
15-Jul-23 14:16 35.223496 -113.420843 305 10287ft 114kts
15-Jul-23 14:17 35.241069 -113.453004 305 10287ft 112kts
15-Jul-23 14:18 35.258567 -113.485068 305 10288ft 111kts
15-Jul-23 14:19 35.276277 -113.517538 305 10311ft 116kts
15-Jul-23 14:20 35.294342 -113.550670 304 10320ft 116kts
15-Jul-23 14:21 35.312339 -113.583680 304 10344ft 117kts
15-Jul-23 14:22 35.330586 -113.617182 304 10359ft 120kts
15-Jul-23 14:23 35.349046 -113.651176 304 10366ft 119kts
15-Jul-23 14:24 35.367362 -113.684963 304 10370ft 118kts
15-Jul-23 14:25 35.385523 -113.718489 304 10381ft 118kts
15-Jul-23 14:26 35.403555 -113.751805 304 10391ft 116kts
15-Jul-23 14:27 35.421419 -113.784838 304 10392ft 117kts
15-Jul-23 14:28 35.439179 -113.817727 303 10393ft 116kts
15-Jul-23 14:29 35.457176 -113.851033 303 10396ft 117kts
15-Jul-23 14:30 35.475352 -113.884694 303 10388ft 117kts
15-Jul-23 14:31 35.493510 -113.918349 303 10377ft 118kts
15-Jul-23 14:32 35.511645 -113.952002 302 10361ft 118kts
15-Jul-23 14:33 35.529726 -113.985614 303 10343ft 118kts
15-Jul-23 14:34 35.547814 -114.019277 303 10318ft 118kts
15-Jul-23 14:35 35.565736 -114.052659 303 10296ft 117kts
15-Jul-23 14:36 35.583697 -114.086140 303 10274ft 117kts
15-Jul-23 14:37 35.601748 -114.119819 303 10264ft 118kts
15-Jul-23 14:38 35.619810 -114.153558 302 10260ft 119kts
15-Jul-23 14:39 35.638132 -114.187822 303 10257ft 120kts
15-Jul-23 14:40 35.656485 -114.222183 303 10255ft 120kts
15-Jul-23 14:41 35.674886 -114.256674 302 10256ft 120kts
15-Jul-23 14:42 35.693255 -114.291124 302 10255ft 120kts
15-Jul-23 14:43 35.711600 -114.325567 302 10253ft 119kts
15-Jul-23 14:44 35.729753 -114.359679 302 10246ft 119kts
15-Jul-23 14:45 35.747870 -114.393765 303 10284ft 120kts
15-Jul-23 14:46 35.765961 -114.427835 303 10281ft 118kts
15-Jul-23 14:47 35.783835 -114.461530 303 10278ft 118kts
15-Jul-23 14:48 35.801762 -114.495351 303 10294ft 117kts
15-Jul-23 14:49 35.819473 -114.528798 303 10317ft 116kts
15-Jul-23 14:50 35.837049 -114.562001 303 10190ft 114kts
15-Jul-23 14:51 35.854448 -114.594826 303 9578ft 114kts
15-Jul-23 14:52 35.870137 -114.628373 293 8426ft 112kts
15-Jul-23 14:53 35.888873 -114.656855 331 7356ft 113kts
15-Jul-23 14:54 35.903775 -114.687334 300 6630ft 112kts
15-Jul-23 14:55 35.920243 -114.719703 302 5970ft 111kts
15-Jul-23 14:56 35.937063 -114.751742 303 5414ft 110kts
15-Jul-23 14:57 35.953795 -114.783539 303 4937ft 110kts
15-Jul-23 14:58 35.970444 -114.815231 303 4392ft 109kts
15-Jul-23 14:59 35.986850 -114.846574 304 4139ft 105kts
15-Jul-23 15:00 35.994452 -114.878908 266 4145ft 107kts
15-Jul-23 15:01 35.990231 -114.916915 258 4140ft 113kts
15-Jul-23 15:02 35.983057 -114.954793 258 4085ft 112kts
15-Jul-23 15:03 35.976128 -114.991982 258 3912ft 105kts
15-Jul-23 15:04 35.971454 -115.026508 262 3999ft 103kts
15-Jul-23 15:05 35.966999 -115.061235 260 3895ft 101kts
15-Jul-23 15:06 35.956707 -115.091326 234 3615ft 100kts
15-Jul-23 15:07 35.947793 -115.121155 272 3196ft 89kts
15-Jul-23 15:08 35.961597 -115.135517 359 2606ft 73kts
15-Jul-23 15:09 35.970914 -115.136137 284 2451ft 0kts
15-Jul-23 15:10 35.970914 -115.136137 284 2451ft 0kts
15-Jul-23 15:11 35.973870 -115.136426 0 2440ft 27kts
15-Jul-23 15:12 35.979267 -115.137193 271 2415ft 13kts

Navigation Log

Ident Type
Flight plan parsing failed, navigation log unavailable